sensor_id;sensor_type;location;lat;lon;timestamp;P1;durP1;ratioP1;P2;durP2;ratioP2
40154;SDS011;25875;48.202;16.334;2022-12-26T00:01:52;31.45;;;24.50;;
40154;SDS011;25875;48.202;16.334;2022-12-26T00:04:20;33.30;;;24.10;;
40154;SDS011;25875;48.202;16.334;2022-12-26T00:06:49;29.77;;;24.52;;
40154;SDS011;25875;48.202;16.334;2022-12-26T00:09:16;30.73;;;23.65;;
40154;SDS011;25875;48.202;16.334;2022-12-26T00:11:43;29.00;;;24.08;;
40154;SDS011;25875;48.202;16.334;2022-12-26T00:14:10;34.88;;;26.13;;
40154;SDS011;25875;48.202;16.334;2022-12-26T00:16:39;33.97;;;25.75;;
40154;SDS011;25875;48.202;16.334;2022-12-26T00:19:07;30.98;;;25.70;;
40154;SDS011;25875;48.202;16.334;2022-12-26T00:21:34;30.88;;;25.35;;
40154;SDS011;25875;48.202;16.334;2022-12-26T00:24:03;29.77;;;23.50;;
40154;SDS011;25875;48.202;16.334;2022-12-26T00:26:31;29.63;;;24.15;;
40154;SDS011;25875;48.202;16.334;2022-12-26T00:29:00;27.80;;;23.65;;
40154;SDS011;25875;48.202;16.334;2022-12-26T00:31:28;29.00;;;22.63;;
40154;SDS011;25875;48.202;16.334;2022-12-26T00:33:56;31.55;;;25.58;;
40154;SDS011;25875;48.202;16.334;2022-12-26T00:36:25;31.55;;;24.35;;
40154;SDS011;25875;48.202;16.334;2022-12-26T00:38:54;27.38;;;23.73;;
40154;SDS011;25875;48.202;16.334;2022-12-26T00:41:23;29.45;;;23.65;;
40154;SDS011;25875;48.202;16.334;2022-12-26T00:43:51;32.25;;;24.52;;
40154;SDS011;25875;48.202;16.334;2022-12-26T00:46:18;30.42;;;24.17;;
40154;SDS011;25875;48.202;16.334;2022-12-26T00:48:45;28.58;;;23.23;;
40154;SDS011;25875;48.202;16.334;2022-12-26T00:51:13;31.27;;;24.05;;
40154;SDS011;25875;48.202;16.334;2022-12-26T00:53:40;28.27;;;23.30;;
40154;SDS011;25875;48.202;16.334;2022-12-26T00:56:07;30.08;;;24.67;;
40154;SDS011;25875;48.202;16.334;2022-12-26T00:58:35;30.73;;;24.00;;
40154;SDS011;25875;48.202;16.334;2022-12-26T01:01:06;30.58;;;24.70;;
40154;SDS011;25875;48.202;16.334;2022-12-26T01:03:35;27.92;;;24.30;;
40154;SDS011;25875;48.202;16.334;2022-12-26T01:06:02;29.17;;;24.02;;
40154;SDS011;25875;48.202;16.334;2022-12-26T01:08:29;33.80;;;26.15;;
40154;SDS011;25875;48.202;16.334;2022-12-26T01:10:56;29.27;;;22.75;;
40154;SDS011;25875;48.202;16.334;2022-12-26T01:13:23;32.72;;;24.55;;
40154;SDS011;25875;48.202;16.334;2022-12-26T01:15:51;31.45;;;26.20;;
40154;SDS011;25875;48.202;16.334;2022-12-26T01:18:20;30.65;;;25.35;;
40154;SDS011;25875;48.202;16.334;2022-12-26T01:20:47;32.38;;;24.10;;
40154;SDS011;25875;48.202;16.334;2022-12-26T01:23:14;32.78;;;25.30;;
40154;SDS011;25875;48.202;16.334;2022-12-26T01:25:42;33.80;;;25.23;;
40154;SDS011;25875;48.202;16.334;2022-12-26T01:28:08;32.92;;;24.88;;
40154;SDS011;25875;48.202;16.334;2022-12-26T01:30:35;33.13;;;25.35;;
40154;SDS011;25875;48.202;16.334;2022-12-26T01:33:04;33.83;;;26.35;;
40154;SDS011;25875;48.202;16.334;2022-12-26T01:35:30;38.55;;;30.45;;
40154;SDS011;25875;48.202;16.334;2022-12-26T01:37:58;39.03;;;30.05;;
40154;SDS011;25875;48.202;16.334;2022-12-26T01:40:24;35.55;;;27.17;;
40154;SDS011;25875;48.202;16.334;2022-12-26T01:42:51;34.10;;;24.42;;
40154;SDS011;25875;48.202;16.334;2022-12-26T01:45:22;28.55;;;22.33;;
40154;SDS011;25875;48.202;16.334;2022-12-26T01:47:53;26.40;;;19.95;;
40154;SDS011;25875;48.202;16.334;2022-12-26T01:53:11;24.52;;;19.85;;
40154;SDS011;25875;48.202;16.334;2022-12-26T01:55:42;21.35;;;18.77;;
40154;SDS011;25875;48.202;16.334;2022-12-26T01:58:15;22.98;;;18.77;;
40154;SDS011;25875;48.202;16.334;2022-12-26T02:00:47;19.83;;;16.70;;
40154;SDS011;25875;48.202;16.334;2022-12-26T02:03:14;20.77;;;18.52;;
40154;SDS011;25875;48.202;16.334;2022-12-26T02:06:00;21.33;;;17.77;;
40154;SDS011;25875;48.202;16.334;2022-12-26T02:08:28;23.83;;;20.40;;
40154;SDS011;25875;48.202;16.334;2022-12-26T02:11:01;21.27;;;17.65;;
40154;SDS011;25875;48.202;16.334;2022-12-26T02:13:33;23.05;;;18.13;;
40154;SDS011;25875;48.202;16.334;2022-12-26T02:16:02;20.60;;;17.90;;
40154;SDS011;25875;48.202;16.334;2022-12-26T02:18:29;21.52;;;17.67;;
40154;SDS011;25875;48.202;16.334;2022-12-26T02:20:59;23.10;;;19.00;;
40154;SDS011;25875;48.202;16.334;2022-12-26T02:23:44;24.30;;;19.02;;
40154;SDS011;25875;48.202;16.334;2022-12-26T02:26:49;21.92;;;16.75;;
40154;SDS011;25875;48.202;16.334;2022-12-26T02:29:44;21.40;;;18.27;;
40154;SDS011;25875;48.202;16.334;2022-12-26T02:32:38;23.02;;;18.38;;
40154;SDS011;25875;48.202;16.334;2022-12-26T02:35:19;22.92;;;17.58;;
40154;SDS011;25875;48.202;16.334;2022-12-26T02:37:58;22.67;;;18.80;;
40154;SDS011;25875;48.202;16.334;2022-12-26T02:40:40;21.67;;;17.45;;
40154;SDS011;25875;48.202;16.334;2022-12-26T02:43:16;22.00;;;18.23;;
40154;SDS011;25875;48.202;16.334;2022-12-26T02:45:53;23.85;;;19.08;;
40154;SDS011;25875;48.202;16.334;2022-12-26T02:48:49;20.67;;;16.80;;
40154;SDS011;25875;48.202;16.334;2022-12-26T02:51:26;23.42;;;18.45;;
40154;SDS011;25875;48.202;16.334;2022-12-26T02:54:23;23.13;;;18.42;;
40154;SDS011;25875;48.202;16.334;2022-12-26T02:57:16;22.70;;;18.48;;
40154;SDS011;25875;48.202;16.334;2022-12-26T03:00:04;25.00;;;19.02;;
40154;SDS011;25875;48.202;16.334;2022-12-26T03:02:51;21.77;;;18.67;;
40154;SDS011;25875;48.202;16.334;2022-12-26T03:05:40;22.38;;;18.63;;
40154;SDS011;25875;48.202;16.334;2022-12-26T03:08:28;22.88;;;17.88;;
40154;SDS011;25875;48.202;16.334;2022-12-26T03:11:14;26.38;;;20.23;;
40154;SDS011;25875;48.202;16.334;2022-12-26T03:14:02;24.27;;;19.58;;
40154;SDS011;25875;48.202;16.334;2022-12-26T03:16:35;27.30;;;19.85;;
40154;SDS011;25875;48.202;16.334;2022-12-26T03:19:20;22.63;;;17.42;;
40154;SDS011;25875;48.202;16.334;2022-12-26T03:21:50;25.45;;;20.52;;
40154;SDS011;25875;48.202;16.334;2022-12-26T03:24:18;25.70;;;19.42;;
40154;SDS011;25875;48.202;16.334;2022-12-26T03:26:47;24.30;;;19.08;;
40154;SDS011;25875;48.202;16.334;2022-12-26T03:29:17;24.70;;;18.75;;
40154;SDS011;25875;48.202;16.334;2022-12-26T03:32:04;26.70;;;19.67;;
40154;SDS011;25875;48.202;16.334;2022-12-26T03:34:33;27.05;;;18.65;;
40154;SDS011;25875;48.202;16.334;2022-12-26T03:39:53;28.05;;;19.70;;
40154;SDS011;25875;48.202;16.334;2022-12-26T03:42:49;27.33;;;19.58;;
40154;SDS011;25875;48.202;16.334;2022-12-26T03:45:43;25.65;;;18.25;;
40154;SDS011;25875;48.202;16.334;2022-12-26T03:48:36;26.75;;;18.88;;
40154;SDS011;25875;48.202;16.334;2022-12-26T03:51:28;27.48;;;20.90;;
40154;SDS011;25875;48.202;16.334;2022-12-26T03:54:21;25.25;;;19.13;;
40154;SDS011;25875;48.202;16.334;2022-12-26T03:57:11;24.90;;;17.85;;
40154;SDS011;25875;48.202;16.334;2022-12-26T04:00:01;26.88;;;18.60;;
40154;SDS011;25875;48.202;16.334;2022-12-26T04:02:48;24.10;;;19.17;;
40154;SDS011;25875;48.202;16.334;2022-12-26T04:05:37;25.80;;;18.35;;
40154;SDS011;25875;48.202;16.334;2022-12-26T04:08:26;23.27;;;17.75;;
40154;SDS011;25875;48.202;16.334;2022-12-26T04:11:15;27.42;;;19.02;;
40154;SDS011;25875;48.202;16.334;2022-12-26T04:14:03;23.17;;;18.02;;
40154;SDS011;25875;48.202;16.334;2022-12-26T04:16:54;23.85;;;18.70;;
40154;SDS011;25875;48.202;16.334;2022-12-26T04:19:49;25.55;;;19.30;;
40154;SDS011;25875;48.202;16.334;2022-12-26T04:22:26;23.77;;;17.55;;
40154;SDS011;25875;48.202;16.334;2022-12-26T04:25:19;22.58;;;17.95;;
40154;SDS011;25875;48.202;16.334;2022-12-26T04:28:09;23.65;;;18.48;;
40154;SDS011;25875;48.202;16.334;2022-12-26T04:30:55;24.20;;;18.30;;
40154;SDS011;25875;48.202;16.334;2022-12-26T04:33:43;24.58;;;18.02;;
40154;SDS011;25875;48.202;16.334;2022-12-26T04:36:35;28.25;;;19.95;;
40154;SDS011;25875;48.202;16.334;2022-12-26T04:39:24;25.33;;;19.52;;
40154;SDS011;25875;48.202;16.334;2022-12-26T04:42:14;24.73;;;18.73;;
40154;SDS011;25875;48.202;16.334;2022-12-26T04:45:03;27.40;;;20.95;;
40154;SDS011;25875;48.202;16.334;2022-12-26T04:47:32;26.05;;;19.52;;
40154;SDS011;25875;48.202;16.334;2022-12-26T04:49:59;25.02;;;18.23;;
40154;SDS011;25875;48.202;16.334;2022-12-26T04:52:40;26.52;;;18.70;;
40154;SDS011;25875;48.202;16.334;2022-12-26T04:55:26;25.77;;;20.25;;
40154;SDS011;25875;48.202;16.334;2022-12-26T04:57:53;30.98;;;22.30;;
40154;SDS011;25875;48.202;16.334;2022-12-26T05:00:23;28.83;;;21.48;;
40154;SDS011;25875;48.202;16.334;2022-12-26T05:02:52;23.75;;;18.33;;
40154;SDS011;25875;48.202;16.334;2022-12-26T05:05:37;27.80;;;21.00;;
40154;SDS011;25875;48.202;16.334;2022-12-26T05:08:24;27.00;;;20.02;;
40154;SDS011;25875;48.202;16.334;2022-12-26T05:11:14;22.77;;;18.50;;
40154;SDS011;25875;48.202;16.334;2022-12-26T05:13:41;25.63;;;19.33;;
40154;SDS011;25875;48.202;16.334;2022-12-26T05:16:09;21.60;;;18.02;;
40154;SDS011;25875;48.202;16.334;2022-12-26T05:18:53;25.52;;;20.20;;
40154;SDS011;25875;48.202;16.334;2022-12-26T05:21:37;25.70;;;19.73;;
40154;SDS011;25875;48.202;16.334;2022-12-26T05:24:22;31.42;;;22.30;;
40154;SDS011;25875;48.202;16.334;2022-12-26T05:27:08;27.73;;;20.27;;
40154;SDS011;25875;48.202;16.334;2022-12-26T05:29:55;29.92;;;19.50;;
40154;SDS011;25875;48.202;16.334;2022-12-26T05:32:24;24.75;;;19.35;;
40154;SDS011;25875;48.202;16.334;2022-12-26T05:35:09;28.08;;;19.83;;
40154;SDS011;25875;48.202;16.334;2022-12-26T05:37:36;24.02;;;17.45;;
40154;SDS011;25875;48.202;16.334;2022-12-26T05:40:03;24.15;;;18.40;;
40154;SDS011;25875;48.202;16.334;2022-12-26T05:42:30;24.55;;;18.90;;
40154;SDS011;25875;48.202;16.334;2022-12-26T05:44:57;25.42;;;18.42;;
40154;SDS011;25875;48.202;16.334;2022-12-26T05:47:25;24.85;;;18.80;;
40154;SDS011;25875;48.202;16.334;2022-12-26T05:49:52;24.77;;;18.35;;
40154;SDS011;25875;48.202;16.334;2022-12-26T05:52:19;24.92;;;19.38;;
40154;SDS011;25875;48.202;16.334;2022-12-26T05:54:46;23.92;;;18.20;;
40154;SDS011;25875;48.202;16.334;2022-12-26T05:57:13;25.15;;;20.27;;
40154;SDS011;25875;48.202;16.334;2022-12-26T05:59:39;26.63;;;19.27;;
40154;SDS011;25875;48.202;16.334;2022-12-26T06:02:06;26.27;;;20.42;;
40154;SDS011;25875;48.202;16.334;2022-12-26T06:04:37;27.38;;;20.38;;
40154;SDS011;25875;48.202;16.334;2022-12-26T06:07:04;28.80;;;19.58;;
40154;SDS011;25875;48.202;16.334;2022-12-26T06:09:30;26.13;;;19.63;;
40154;SDS011;25875;48.202;16.334;2022-12-26T06:11:57;30.05;;;21.00;;
40154;SDS011;25875;48.202;16.334;2022-12-26T06:14:24;23.27;;;18.30;;
40154;SDS011;25875;48.202;16.334;2022-12-26T06:16:51;25.55;;;18.40;;
40154;SDS011;25875;48.202;16.334;2022-12-26T06:19:17;24.70;;;18.40;;
40154;SDS011;25875;48.202;16.334;2022-12-26T06:21:45;27.25;;;20.30;;
40154;SDS011;25875;48.202;16.334;2022-12-26T06:24:12;28.90;;;20.77;;
40154;SDS011;25875;48.202;16.334;2022-12-26T06:26:39;29.23;;;19.23;;
40154;SDS011;25875;48.202;16.334;2022-12-26T06:29:06;27.10;;;20.40;;
40154;SDS011;25875;48.202;16.334;2022-12-26T06:31:35;25.42;;;20.05;;
40154;SDS011;25875;48.202;16.334;2022-12-26T06:34:02;26.05;;;19.85;;
40154;SDS011;25875;48.202;16.334;2022-12-26T06:36:30;27.85;;;20.65;;
40154;SDS011;25875;48.202;16.334;2022-12-26T06:38:58;26.75;;;19.35;;
40154;SDS011;25875;48.202;16.334;2022-12-26T06:41:25;25.80;;;19.30;;
40154;SDS011;25875;48.202;16.334;2022-12-26T06:43:52;27.05;;;20.25;;
40154;SDS011;25875;48.202;16.334;2022-12-26T06:46:20;22.65;;;17.98;;
40154;SDS011;25875;48.202;16.334;2022-12-26T06:48:48;29.02;;;21.02;;
40154;SDS011;25875;48.202;16.334;2022-12-26T06:51:16;25.38;;;19.58;;
40154;SDS011;25875;48.202;16.334;2022-12-26T06:53:44;26.75;;;19.67;;
40154;SDS011;25875;48.202;16.334;2022-12-26T06:56:13;26.60;;;19.25;;
40154;SDS011;25875;48.202;16.334;2022-12-26T06:58:41;26.80;;;19.08;;
40154;SDS011;25875;48.202;16.334;2022-12-26T07:01:10;23.83;;;18.38;;
40154;SDS011;25875;48.202;16.334;2022-12-26T07:03:40;22.92;;;18.55;;
40154;SDS011;25875;48.202;16.334;2022-12-26T07:06:09;24.13;;;18.33;;
40154;SDS011;25875;48.202;16.334;2022-12-26T07:08:38;23.98;;;18.20;;
40154;SDS011;25875;48.202;16.334;2022-12-26T07:11:11;21.35;;;16.83;;
40154;SDS011;25875;48.202;16.334;2022-12-26T07:13:40;23.40;;;17.92;;
40154;SDS011;25875;48.202;16.334;2022-12-26T07:16:07;23.67;;;18.23;;
40154;SDS011;25875;48.202;16.334;2022-12-26T07:18:35;24.17;;;18.52;;
40154;SDS011;25875;48.202;16.334;2022-12-26T07:21:03;20.52;;;16.63;;
40154;SDS011;25875;48.202;16.334;2022-12-26T07:23:30;21.38;;;16.83;;
40154;SDS011;25875;48.202;16.334;2022-12-26T07:25:57;24.50;;;19.15;;
40154;SDS011;25875;48.202;16.334;2022-12-26T07:28:25;22.02;;;16.95;;
40154;SDS011;25875;48.202;16.334;2022-12-26T07:30:52;23.17;;;18.15;;
40154;SDS011;25875;48.202;16.334;2022-12-26T07:33:19;24.52;;;18.60;;
40154;SDS011;25875;48.202;16.334;2022-12-26T07:35:47;27.38;;;19.08;;
40154;SDS011;25875;48.202;16.334;2022-12-26T07:38:13;23.33;;;18.05;;
40154;SDS011;25875;48.202;16.334;2022-12-26T07:40:41;23.95;;;17.85;;
40154;SDS011;25875;48.202;16.334;2022-12-26T07:43:07;22.95;;;18.70;;
40154;SDS011;25875;48.202;16.334;2022-12-26T07:45:35;25.02;;;18.83;;
40154;SDS011;25875;48.202;16.334;2022-12-26T07:48:02;21.25;;;17.65;;
40154;SDS011;25875;48.202;16.334;2022-12-26T07:50:29;25.73;;;18.48;;
40154;SDS011;25875;48.202;16.334;2022-12-26T07:52:56;20.88;;;17.13;;
40154;SDS011;25875;48.202;16.334;2022-12-26T07:55:24;19.45;;;17.20;;
40154;SDS011;25875;48.202;16.334;2022-12-26T07:57:51;21.08;;;16.25;;
40154;SDS011;25875;48.202;16.334;2022-12-26T08:00:18;20.40;;;16.27;;
40154;SDS011;25875;48.202;16.334;2022-12-26T08:02:47;19.85;;;17.17;;
40154;SDS011;25875;48.202;16.334;2022-12-26T08:05:16;19.83;;;15.85;;
40154;SDS011;25875;48.202;16.334;2022-12-26T08:07:45;20.27;;;16.30;;
40154;SDS011;25875;48.202;16.334;2022-12-26T08:10:13;18.95;;;16.23;;
40154;SDS011;25875;48.202;16.334;2022-12-26T08:12:40;19.55;;;16.27;;
40154;SDS011;25875;48.202;16.334;2022-12-26T08:15:07;20.17;;;15.95;;
40154;SDS011;25875;48.202;16.334;2022-12-26T08:17:35;21.95;;;17.70;;
40154;SDS011;25875;48.202;16.334;2022-12-26T08:20:04;22.02;;;16.77;;
40154;SDS011;25875;48.202;16.334;2022-12-26T08:22:32;19.92;;;16.20;;
40154;SDS011;25875;48.202;16.334;2022-12-26T08:24:58;19.27;;;17.15;;
40154;SDS011;25875;48.202;16.334;2022-12-26T08:27:25;19.88;;;16.38;;
40154;SDS011;25875;48.202;16.334;2022-12-26T08:29:52;21.08;;;16.88;;
40154;SDS011;25875;48.202;16.334;2022-12-26T08:32:19;22.02;;;17.42;;
40154;SDS011;25875;48.202;16.334;2022-12-26T08:34:45;22.42;;;18.52;;
40154;SDS011;25875;48.202;16.334;2022-12-26T08:37:14;20.65;;;17.42;;
40154;SDS011;25875;48.202;16.334;2022-12-26T08:39:40;21.42;;;15.80;;
40154;SDS011;25875;48.202;16.334;2022-12-26T08:42:07;22.70;;;19.50;;
40154;SDS011;25875;48.202;16.334;2022-12-26T08:44:34;20.50;;;16.58;;
40154;SDS011;25875;48.202;16.334;2022-12-26T08:47:01;19.30;;;15.63;;
40154;SDS011;25875;48.202;16.334;2022-12-26T08:49:28;26.17;;;17.98;;
40154;SDS011;25875;48.202;16.334;2022-12-26T08:51:55;21.92;;;19.08;;
40154;SDS011;25875;48.202;16.334;2022-12-26T08:54:24;20.48;;;17.33;;
40154;SDS011;25875;48.202;16.334;2022-12-26T08:56:50;20.50;;;16.98;;
40154;SDS011;25875;48.202;16.334;2022-12-26T08:59:17;22.52;;;18.23;;
40154;SDS011;25875;48.202;16.334;2022-12-26T09:01:44;21.15;;;17.27;;
40154;SDS011;25875;48.202;16.334;2022-12-26T09:04:11;23.60;;;19.80;;
40154;SDS011;25875;48.202;16.334;2022-12-26T09:06:38;24.77;;;19.08;;
40154;SDS011;25875;48.202;16.334;2022-12-26T09:09:06;21.60;;;17.08;;
40154;SDS011;25875;48.202;16.334;2022-12-26T09:11:37;22.65;;;18.65;;
40154;SDS011;25875;48.202;16.334;2022-12-26T09:14:04;23.70;;;18.27;;
40154;SDS011;25875;48.202;16.334;2022-12-26T09:16:32;22.20;;;18.02;;
40154;SDS011;25875;48.202;16.334;2022-12-26T09:19:03;24.73;;;20.58;;
40154;SDS011;25875;48.202;16.334;2022-12-26T09:21:30;28.35;;;20.02;;
40154;SDS011;25875;48.202;16.334;2022-12-26T09:23:58;24.02;;;19.33;;
40154;SDS011;25875;48.202;16.334;2022-12-26T09:26:27;24.20;;;20.00;;
40154;SDS011;25875;48.202;16.334;2022-12-26T09:28:56;23.40;;;19.20;;
40154;SDS011;25875;48.202;16.334;2022-12-26T09:31:24;21.65;;;17.52;;
40154;SDS011;25875;48.202;16.334;2022-12-26T09:33:53;25.20;;;19.52;;
40154;SDS011;25875;48.202;16.334;2022-12-26T09:36:22;24.52;;;20.25;;
40154;SDS011;25875;48.202;16.334;2022-12-26T09:38:50;27.13;;;20.85;;
40154;SDS011;25875;48.202;16.334;2022-12-26T09:41:22;21.98;;;17.73;;
40154;SDS011;25875;48.202;16.334;2022-12-26T09:44:04;22.50;;;18.05;;
40154;SDS011;25875;48.202;16.334;2022-12-26T09:46:37;19.25;;;16.65;;
40154;SDS011;25875;48.202;16.334;2022-12-26T09:49:10;20.83;;;16.88;;
40154;SDS011;25875;48.202;16.334;2022-12-26T09:51:42;23.73;;;17.60;;
40154;SDS011;25875;48.202;16.334;2022-12-26T09:54:15;23.02;;;18.05;;
40154;SDS011;25875;48.202;16.334;2022-12-26T09:56:48;23.20;;;17.75;;
40154;SDS011;25875;48.202;16.334;2022-12-26T09:59:17;22.15;;;18.13;;
40154;SDS011;25875;48.202;16.334;2022-12-26T10:01:45;23.67;;;19.00;;
40154;SDS011;25875;48.202;16.334;2022-12-26T10:04:15;25.67;;;20.17;;
40154;SDS011;25875;48.202;16.334;2022-12-26T10:06:48;24.55;;;19.10;;
40154;SDS011;25875;48.202;16.334;2022-12-26T10:12:17;24.48;;;20.70;;
40154;SDS011;25875;48.202;16.334;2022-12-26T10:15:05;24.90;;;19.75;;
40154;SDS011;25875;48.202;16.334;2022-12-26T10:17:41;26.13;;;20.05;;
40154;SDS011;25875;48.202;16.334;2022-12-26T10:20:18;21.98;;;18.10;;
40154;SDS011;25875;48.202;16.334;2022-12-26T10:22:58;24.23;;;18.63;;
40154;SDS011;25875;48.202;16.334;2022-12-26T10:25:35;24.30;;;20.52;;
40154;SDS011;25875;48.202;16.334;2022-12-26T10:28:09;26.30;;;20.50;;
40154;SDS011;25875;48.202;16.334;2022-12-26T10:30:44;29.17;;;21.63;;
40154;SDS011;25875;48.202;16.334;2022-12-26T10:33:15;25.55;;;20.38;;
40154;SDS011;25875;48.202;16.334;2022-12-26T10:35:46;25.33;;;21.30;;
40154;SDS011;25875;48.202;16.334;2022-12-26T10:38:15;28.23;;;22.45;;
40154;SDS011;25875;48.202;16.334;2022-12-26T10:40:51;25.15;;;20.05;;
40154;SDS011;25875;48.202;16.334;2022-12-26T10:43:23;25.70;;;21.27;;
40154;SDS011;25875;48.202;16.334;2022-12-26T10:46:00;24.27;;;20.00;;
40154;SDS011;25875;48.202;16.334;2022-12-26T10:48:53;24.48;;;19.77;;
40154;SDS011;25875;48.202;16.334;2022-12-26T10:51:20;23.52;;;20.10;;
40154;SDS011;25875;48.202;16.334;2022-12-26T10:53:47;24.35;;;21.35;;
40154;SDS011;25875;48.202;16.334;2022-12-26T10:56:16;24.45;;;21.08;;
40154;SDS011;25875;48.202;16.334;2022-12-26T10:58:43;25.60;;;20.23;;
40154;SDS011;25875;48.202;16.334;2022-12-26T11:01:32;23.60;;;20.20;;
40154;SDS011;25875;48.202;16.334;2022-12-26T11:04:01;27.55;;;22.70;;
40154;SDS011;25875;48.202;16.334;2022-12-26T11:06:30;24.35;;;20.33;;
40154;SDS011;25875;48.202;16.334;2022-12-26T11:08:59;23.80;;;19.80;;
40154;SDS011;25875;48.202;16.334;2022-12-26T11:11:26;23.73;;;20.38;;
40154;SDS011;25875;48.202;16.334;2022-12-26T11:14:24;24.27;;;20.85;;
40154;SDS011;25875;48.202;16.334;2022-12-26T11:16:56;23.23;;;19.75;;
40154;SDS011;25875;48.202;16.334;2022-12-26T11:19:25;24.13;;;20.45;;
40154;SDS011;25875;48.202;16.334;2022-12-26T11:21:53;24.08;;;19.80;;
40154;SDS011;25875;48.202;16.334;2022-12-26T11:24:20;23.00;;;20.15;;
40154;SDS011;25875;48.202;16.334;2022-12-26T11:26:47;23.17;;;20.35;;
40154;SDS011;25875;48.202;16.334;2022-12-26T11:29:14;24.52;;;20.73;;
40154;SDS011;25875;48.202;16.334;2022-12-26T11:31:48;22.80;;;20.35;;
40154;SDS011;25875;48.202;16.334;2022-12-26T11:34:22;23.98;;;19.58;;
40154;SDS011;25875;48.202;16.334;2022-12-26T11:36:56;24.65;;;20.35;;
40154;SDS011;25875;48.202;16.334;2022-12-26T11:39:24;23.90;;;19.35;;
40154;SDS011;25875;48.202;16.334;2022-12-26T11:41:53;22.70;;;18.92;;
40154;SDS011;25875;48.202;16.334;2022-12-26T11:44:22;25.27;;;20.70;;
40154;SDS011;25875;48.202;16.334;2022-12-26T11:46:53;22.33;;;19.92;;
40154;SDS011;25875;48.202;16.334;2022-12-26T11:49:28;23.65;;;20.30;;
40154;SDS011;25875;48.202;16.334;2022-12-26T11:52:00;24.80;;;22.02;;
40154;SDS011;25875;48.202;16.334;2022-12-26T11:54:30;21.75;;;18.70;;
40154;SDS011;25875;48.202;16.334;2022-12-26T11:57:00;23.25;;;19.52;;
40154;SDS011;25875;48.202;16.334;2022-12-26T11:59:37;25.88;;;22.08;;
40154;SDS011;25875;48.202;16.334;2022-12-26T12:02:24;24.02;;;21.02;;
40154;SDS011;25875;48.202;16.334;2022-12-26T12:04:55;27.67;;;22.67;;
40154;SDS011;25875;48.202;16.334;2022-12-26T12:07:33;28.20;;;23.00;;
40154;SDS011;25875;48.202;16.334;2022-12-26T12:10:22;23.38;;;20.85;;
40154;SDS011;25875;48.202;16.334;2022-12-26T12:13:09;24.17;;;20.30;;
40154;SDS011;25875;48.202;16.334;2022-12-26T12:15:45;23.02;;;20.50;;
40154;SDS011;25875;48.202;16.334;2022-12-26T12:18:21;25.70;;;22.27;;
40154;SDS011;25875;48.202;16.334;2022-12-26T12:21:13;24.98;;;22.00;;
40154;SDS011;25875;48.202;16.334;2022-12-26T12:26:44;22.73;;;19.00;;
40154;SDS011;25875;48.202;16.334;2022-12-26T12:29:21;25.02;;;20.75;;
40154;SDS011;25875;48.202;16.334;2022-12-26T12:32:03;28.80;;;24.75;;
40154;SDS011;25875;48.202;16.334;2022-12-26T12:34:43;26.02;;;22.52;;
40154;SDS011;25875;48.202;16.334;2022-12-26T12:37:28;24.35;;;21.73;;
40154;SDS011;25875;48.202;16.334;2022-12-26T12:40:04;25.70;;;22.33;;
40154;SDS011;25875;48.202;16.334;2022-12-26T12:42:47;25.85;;;22.30;;
40154;SDS011;25875;48.202;16.334;2022-12-26T12:45:24;27.90;;;22.60;;
40154;SDS011;25875;48.202;16.334;2022-12-26T12:47:57;29.35;;;24.17;;
40154;SDS011;25875;48.202;16.334;2022-12-26T12:50:42;27.38;;;23.20;;
40154;SDS011;25875;48.202;16.334;2022-12-26T12:53:20;25.15;;;22.45;;
40154;SDS011;25875;48.202;16.334;2022-12-26T12:55:59;26.45;;;21.75;;
40154;SDS011;25875;48.202;16.334;2022-12-26T12:58:44;26.67;;;21.48;;
40154;SDS011;25875;48.202;16.334;2022-12-26T13:01:20;24.73;;;21.17;;
40154;SDS011;25875;48.202;16.334;2022-12-26T13:03:52;26.63;;;22.55;;
40154;SDS011;25875;48.202;16.334;2022-12-26T13:06:24;26.00;;;22.27;;
40154;SDS011;25875;48.202;16.334;2022-12-26T13:08:57;25.30;;;22.50;;
40154;SDS011;25875;48.202;16.334;2022-12-26T13:11:32;25.92;;;23.10;;
40154;SDS011;25875;48.202;16.334;2022-12-26T13:14:04;25.70;;;21.42;;
40154;SDS011;25875;48.202;16.334;2022-12-26T13:16:37;21.88;;;19.40;;
40154;SDS011;25875;48.202;16.334;2022-12-26T13:19:09;23.30;;;20.15;;
40154;SDS011;25875;48.202;16.334;2022-12-26T13:24:13;23.15;;;19.83;;
40154;SDS011;25875;48.202;16.334;2022-12-26T13:26:50;24.63;;;21.48;;
40154;SDS011;25875;48.202;16.334;2022-12-26T13:29:28;22.90;;;20.00;;
40154;SDS011;25875;48.202;16.334;2022-12-26T13:32:00;22.65;;;20.35;;
40154;SDS011;25875;48.202;16.334;2022-12-26T13:34:29;21.10;;;18.90;;
40154;SDS011;25875;48.202;16.334;2022-12-26T13:36:57;21.05;;;18.80;;
40154;SDS011;25875;48.202;16.334;2022-12-26T13:51:42;19.88;;;17.88;;
40154;SDS011;25875;48.202;16.334;2022-12-26T13:54:20;19.75;;;17.73;;
40154;SDS011;25875;48.202;16.334;2022-12-26T14:00:07;17.75;;;15.95;;
40154;SDS011;25875;48.202;16.334;2022-12-26T14:05:55;17.92;;;16.02;;
40154;SDS011;25875;48.202;16.334;2022-12-26T14:08:36;18.38;;;16.45;;
40154;SDS011;25875;48.202;16.334;2022-12-26T14:11:13;17.13;;;15.52;;
40154;SDS011;25875;48.202;16.334;2022-12-26T14:13:58;18.08;;;15.02;;
40154;SDS011;25875;48.202;16.334;2022-12-26T14:16:35;16.65;;;15.05;;
40154;SDS011;25875;48.202;16.334;2022-12-26T14:19:11;17.48;;;15.77;;
40154;SDS011;25875;48.202;16.334;2022-12-26T14:21:51;19.23;;;17.17;;
40154;SDS011;25875;48.202;16.334;2022-12-26T14:24:29;18.55;;;16.00;;
40154;SDS011;25875;48.202;16.334;2022-12-26T14:27:12;19.30;;;17.13;;
40154;SDS011;25875;48.202;16.334;2022-12-26T14:29:54;20.02;;;17.92;;
40154;SDS011;25875;48.202;16.334;2022-12-26T14:32:32;19.58;;;17.50;;
40154;SDS011;25875;48.202;16.334;2022-12-26T14:35:09;18.42;;;16.52;;
40154;SDS011;25875;48.202;16.334;2022-12-26T14:37:47;19.73;;;16.60;;
40154;SDS011;25875;48.202;16.334;2022-12-26T14:40:24;19.35;;;16.15;;
40154;SDS011;25875;48.202;16.334;2022-12-26T14:43:13;18.83;;;16.88;;
40154;SDS011;25875;48.202;16.334;2022-12-26T14:45:55;18.23;;;15.98;;
40154;SDS011;25875;48.202;16.334;2022-12-26T14:48:42;17.67;;;15.98;;
40154;SDS011;25875;48.202;16.334;2022-12-26T14:51:28;20.92;;;18.05;;
40154;SDS011;25875;48.202;16.334;2022-12-26T14:57:01;19.65;;;17.65;;
40154;SDS011;25875;48.202;16.334;2022-12-26T15:00:25;18.90;;;17.00;;
40154;SDS011;25875;48.202;16.334;2022-12-26T15:12:46;20.15;;;18.05;;
40154;SDS011;25875;48.202;16.334;2022-12-26T15:15:43;17.50;;;15.70;;
40154;SDS011;25875;48.202;16.334;2022-12-26T15:21:25;19.90;;;17.77;;
40154;SDS011;25875;48.202;16.334;2022-12-26T15:24:21;18.42;;;16.52;;
40154;SDS011;25875;48.202;16.334;2022-12-26T15:27:24;19.30;;;17.20;;
40154;SDS011;25875;48.202;16.334;2022-12-26T15:30:20;19.02;;;15.80;;
40154;SDS011;25875;48.202;16.334;2022-12-26T15:32:51;18.38;;;16.52;;
40154;SDS011;25875;48.202;16.334;2022-12-26T15:35:33;17.30;;;15.50;;
40154;SDS011;25875;48.202;16.334;2022-12-26T15:38:14;17.77;;;15.98;;